Terminal Aerodrome Forecast
Issued by NWS

Home | Current Version | Previous Version | Graphics & Text | Print | Product List | Glossary On
Versions: 1 2 3 4 5 6 7 8 9 10 11 12 13 14 15 16
152
FTUS43 KMPX 251602 AAB
TAFAXN
TAF AMD
KAXN 251602Z 2516/2612 28012G22KT P6SM BKN020
     FM251900 29013G20KT P6SM SCT025 BKN035
     FM260200 28006KT P6SM SKC
     FM260800 23003KT P6SM SKC=

USA.gov is the U.S. government's official web portal to all federal, state and local government web resources and services.